createdAt,value
2018-09-04T00:00:42.752Z,100799.70
2018-09-04T00:03:10.772Z,100798.94
2018-09-04T00:05:38.784Z,100795.03
2018-09-04T00:08:07.580Z,100790.83
2018-09-04T00:10:35.586Z,100793.70
2018-09-04T00:13:03.604Z,100796.20
2018-09-04T00:15:31.621Z,100797.25
2018-09-04T00:17:59.744Z,100799.05
2018-09-04T00:20:27.761Z,100797.34
2018-09-04T00:22:55.760Z,100791.83
2018-09-04T00:25:23.796Z,100797.80
2018-09-04T00:27:51.794Z,100800.86
2018-09-04T00:30:19.816Z,100798.09
2018-09-04T00:32:47.844Z,100797.48
2018-09-04T00:35:15.865Z,100799.15
2018-09-04T00:37:43.862Z,100793.92
2018-09-04T00:40:11.909Z,100794.48
2018-09-04T00:42:39.912Z,100794.06
2018-09-04T00:45:07.925Z,100796.56
2018-09-04T00:47:35.938Z,100795.72
2018-09-04T00:50:03.994Z,100794.57
2018-09-04T00:52:32.023Z,100797.73
2018-09-04T00:55:00.103Z,100793.25
2018-09-04T00:57:28.096Z,100796.00
2018-09-04T00:59:56.085Z,100797.13
2018-09-04T01:02:24.155Z,100789.36
2018-09-04T01:04:52.183Z,100793.41
2018-09-04T01:07:20.228Z,100788.53
2018-09-04T01:09:48.238Z,100790.64
2018-09-04T01:12:16.236Z,100795.59
2018-09-04T01:14:44.264Z,100793.80
2018-09-04T01:17:12.308Z,100802.17
2018-09-04T01:19:40.372Z,100804.05
2018-09-04T01:22:08.409Z,100802.11
2018-09-04T01:24:36.408Z,100802.02
2018-09-04T01:27:04.453Z,100799.14
2018-09-04T01:29:32.440Z,100803.05
2018-09-04T01:32:00.457Z,100801.02
2018-09-04T01:34:28.481Z,100801.31
2018-09-04T01:36:56.480Z,100805.26
2018-09-04T01:39:24.473Z,100801.17
2018-09-04T01:41:52.493Z,100801.55
2018-09-04T01:44:20.517Z,100800.43
2018-09-04T01:46:48.525Z,100798.89
2018-09-04T01:49:16.554Z,100793.23
2018-09-04T01:51:44.563Z,100796.08
2018-09-04T01:54:12.553Z,100795.08
2018-09-04T01:56:40.564Z,100793.84
2018-09-04T01:59:08.561Z,100796.30
2018-09-04T02:01:36.776Z,100796.63
2018-09-04T02:04:04.794Z,100790.16
2018-09-04T02:06:32.805Z,100791.25
2018-09-04T02:09:00.801Z,100787.03
2018-09-04T02:11:28.821Z,100793.59
2018-09-04T02:13:56.809Z,100792.39
2018-09-04T02:16:24.792Z,100788.58
2018-09-04T02:18:52.951Z,100786.91
2018-09-04T02:21:20.961Z,100786.91
2018-09-04T02:23:48.956Z,100782.70
2018-09-04T02:26:16.956Z,100782.92
2018-09-04T02:28:44.973Z,100782.64
2018-09-04T02:31:12.980Z,100788.45
2018-09-04T02:33:41.094Z,100786.32
2018-09-04T02:36:09.104Z,100783.73
2018-09-04T02:38:37.221Z,100786.53
2018-09-04T02:41:05.921Z,100781.36
2018-09-04T02:43:33.922Z,100782.80
2018-09-04T02:46:01.981Z,100782.70
2018-09-04T02:48:30.052Z,100786.92
2018-09-04T02:50:58.060Z,100783.39
2018-09-04T02:53:26.072Z,100778.67
2018-09-04T02:55:54.090Z,100778.80
2018-09-04T02:58:22.096Z,100777.83
2018-09-04T03:00:50.120Z,100775.38
2018-09-04T03:03:18.135Z,100778.61
2018-09-04T03:05:46.150Z,100776.72
2018-09-04T03:08:14.174Z,100785.38
2018-09-04T03:10:42.249Z,100780.17
2018-09-04T03:13:10.321Z,100780.77
2018-09-04T03:15:38.385Z,100782.09
2018-09-04T03:18:06.416Z,100786.35
2018-09-04T03:20:34.432Z,100785.06
2018-09-04T03:23:02.460Z,100783.96
2018-09-04T03:25:30.457Z,100782.00
2018-09-04T03:27:58.489Z,100778.67
2018-09-04T03:30:26.469Z,100778.10
2018-09-04T03:32:54.469Z,100769.88
2018-09-04T03:35:22.495Z,100775.22
2018-09-04T03:37:50.522Z,100768.53
2018-09-04T03:40:18.539Z,100770.79
2018-09-04T03:42:46.593Z,100773.00
2018-09-04T03:45:14.696Z,100766.52
2018-09-04T03:47:42.747Z,100767.44
2018-09-04T03:50:10.872Z,100764.59
2018-09-04T03:52:38.864Z,100766.14
2018-09-04T03:55:06.990Z,100776.11
2018-09-04T03:57:34.977Z,100773.22
2018-09-04T04:00:03.029Z,100774.19
2018-09-04T04:02:31.040Z,100776.83
2018-09-04T04:04:59.117Z,100780.02
2018-09-04T04:07:27.209Z,100776.03
2018-09-04T04:09:55.368Z,100777.15
2018-09-04T04:12:23.409Z,100776.72
2018-09-04T04:14:51.477Z,100780.08
2018-09-04T04:17:19.515Z,100779.94
2018-09-04T04:19:47.556Z,100777.97
2018-09-04T04:22:15.585Z,100790.15
2018-09-04T04:24:44.651Z,100784.38
2018-09-04T04:27:12.661Z,100782.91
2018-09-04T04:29:40.702Z,100792.64
2018-09-04T04:32:08.708Z,100793.61
2018-09-04T04:34:36.714Z,100797.11
2018-09-04T04:37:04.779Z,100790.50
2018-09-04T04:39:32.857Z,100799.59
2018-09-04T04:42:00.889Z,100796.12
2018-09-04T04:44:28.907Z,100801.16
2018-09-04T04:49:28.429Z,100801.37
2018-09-04T04:51:56.436Z,100800.53
2018-09-04T04:54:24.500Z,100811.16
2018-09-04T04:56:52.647Z,100811.50
2018-09-04T04:59:20.673Z,100812.73
2018-09-04T05:01:48.705Z,100810.06
2018-09-04T05:04:16.740Z,100814.63
2018-09-04T05:06:44.748Z,100815.47
2018-09-04T05:09:12.836Z,100808.59
2018-09-04T05:11:40.935Z,100815.11
2018-09-04T05:14:08.945Z,100808.70
2018-09-04T05:16:36.982Z,100810.03
2018-09-04T05:19:05.157Z,100803.09
2018-09-04T05:21:33.180Z,100810.37
2018-09-04T05:24:01.187Z,100813.11
2018-09-04T05:26:29.212Z,100809.70
2018-09-04T05:28:57.212Z,100811.16
2018-09-04T05:31:25.554Z,100814.94
2018-09-04T05:33:53.564Z,100811.16
2018-09-04T05:36:21.591Z,100812.44
2018-09-04T05:38:49.593Z,100810.66
2018-09-04T05:41:17.633Z,100816.51
2018-09-04T05:43:50.288Z,100811.62
2018-09-04T05:46:24.813Z,100813.12
2018-09-04T05:48:53.381Z,100812.78
2018-09-04T05:51:21.412Z,100812.23
2018-09-04T05:53:49.451Z,100815.80
2018-09-04T05:56:17.473Z,100817.40
2018-09-04T05:58:45.460Z,100819.55
2018-09-04T06:01:13.477Z,100823.45
2018-09-04T06:03:41.505Z,100820.66
2018-09-04T06:06:09.524Z,100822.88
2018-09-04T06:08:37.524Z,100823.32
2018-09-04T06:11:05.534Z,100823.10
2018-09-04T06:13:33.589Z,100822.95
2018-09-04T06:16:01.545Z,100824.70
2018-09-04T06:18:29.548Z,100826.87
2018-09-04T06:20:57.605Z,100817.37
2018-09-04T06:23:25.618Z,100823.45
2018-09-04T06:25:53.637Z,100824.42
2018-09-04T06:28:21.662Z,100821.62
2018-09-04T06:30:49.682Z,100821.34
2018-09-04T06:33:17.766Z,100814.88
2018-09-04T06:35:45.701Z,100825.94
2018-09-04T06:38:13.721Z,100817.70
2018-09-04T06:40:41.741Z,100819.20
2018-09-04T06:43:09.836Z,100814.91
2018-09-04T06:45:37.857Z,100817.00
2018-09-04T06:48:05.871Z,100818.27
2018-09-04T06:50:33.965Z,100819.56
2018-09-04T06:53:02.006Z,100830.25
2018-09-04T06:55:30.041Z,100824.70
2018-09-04T06:57:58.159Z,100824.83
2018-09-04T07:00:26.246Z,100837.70
2018-09-04T07:02:54.341Z,100844.97
2018-09-04T07:05:22.379Z,100851.37
2018-09-04T07:07:50.410Z,100846.22
2018-09-04T07:10:18.433Z,100852.44
2018-09-04T07:12:46.434Z,100853.63
2018-09-04T07:15:14.445Z,100857.80
2018-09-04T07:17:42.522Z,100856.88
2018-09-04T07:20:10.516Z,100847.23
2018-09-04T07:22:38.560Z,100858.56
2018-09-04T07:25:07.216Z,100849.91
2018-09-04T07:27:35.218Z,100850.94
2018-09-04T07:30:03.252Z,100852.91
2018-09-04T07:32:31.276Z,100855.81
2018-09-04T07:34:59.285Z,100853.00
2018-09-04T07:37:27.341Z,100858.86
2018-09-04T07:39:55.338Z,100862.12
2018-09-04T07:42:23.373Z,100862.67
2018-09-04T07:44:51.441Z,100861.08
2018-09-04T07:47:19.453Z,100869.09
2018-09-04T07:49:47.466Z,100865.20
2018-09-04T07:52:15.495Z,100870.86
2018-09-04T07:54:43.510Z,100877.53
2018-09-04T07:57:11.678Z,100872.77
2018-09-04T07:59:39.689Z,100882.55
2018-09-04T08:02:07.932Z,100872.88
2018-09-04T08:04:35.929Z,100875.72
2018-09-04T08:07:04.180Z,100881.66
2018-09-04T08:09:32.226Z,100877.42
2018-09-04T08:12:00.226Z,100882.40
2018-09-04T08:14:28.680Z,100886.88
2018-09-04T08:17:03.432Z,100884.19
2018-09-04T08:19:31.449Z,100891.86
2018-09-04T08:21:59.454Z,100882.19
2018-09-04T08:24:27.528Z,100886.78
2018-09-04T08:26:55.546Z,100883.88
2018-09-04T08:29:23.575Z,100890.23
2018-09-04T08:31:51.581Z,100889.19
2018-09-04T08:34:19.621Z,100895.84
2018-09-04T08:36:47.629Z,100896.05
2018-09-04T08:39:15.670Z,100899.72
2018-09-04T08:41:43.697Z,100894.37
2018-09-04T08:44:11.703Z,100888.14
2018-09-04T08:46:39.697Z,100885.41
2018-09-04T08:49:07.700Z,100887.17
2018-09-04T08:51:35.693Z,100885.99
2018-09-04T08:54:03.740Z,100886.89
2018-09-04T08:56:31.752Z,100890.96
2018-09-04T08:58:59.787Z,100891.00
2018-09-04T09:01:27.820Z,100891.36
2018-09-04T09:03:55.809Z,100890.59
2018-09-04T09:06:23.809Z,100891.06
2018-09-04T09:08:51.840Z,100898.09
2018-09-04T09:11:19.846Z,100889.88
2018-09-04T09:13:47.866Z,100889.55
2018-09-04T09:16:15.873Z,100884.50
2018-09-04T09:18:43.878Z,100884.90
2018-09-04T09:21:11.985Z,100880.75
2018-09-04T09:23:40.013Z,100877.61
2018-09-04T09:26:08.026Z,100877.49
2018-09-04T09:28:36.028Z,100877.39
2018-09-04T09:31:04.017Z,100871.84
2018-09-04T09:33:32.027Z,100868.17
2018-09-04T09:36:00.106Z,100863.62
2018-09-04T09:38:28.097Z,100863.15
2018-09-04T09:40:56.092Z,100860.42
2018-09-04T09:43:24.178Z,100864.51
2018-09-04T09:45:52.189Z,100867.05
2018-09-04T09:48:20.188Z,100854.40
2018-09-04T09:50:48.198Z,100862.25
2018-09-04T09:53:16.462Z,100851.64
2018-09-04T09:55:44.228Z,100855.33
2018-09-04T09:58:12.262Z,100851.88
2018-09-04T10:00:45.648Z,100847.36
2018-09-04T10:04:21.821Z,100846.06
2018-09-04T10:06:49.872Z,100846.97
2018-09-04T10:09:17.949Z,100841.57
2018-09-04T10:11:45.956Z,100836.45
2018-09-04T10:14:13.992Z,100841.66
2018-09-04T10:16:42.028Z,100839.71
2018-09-04T10:19:10.093Z,100839.20
2018-09-04T10:21:38.192Z,100844.53
2018-09-04T10:24:06.381Z,100833.91
2018-09-04T10:26:34.653Z,100840.51
2018-09-04T10:29:02.549Z,100838.84
2018-09-04T10:31:30.736Z,100842.67
2018-09-04T10:33:59.000Z,100837.95
2018-09-04T10:36:27.206Z,100843.30
2018-09-04T10:39:00.604Z,100846.94
2018-09-04T10:41:28.844Z,100839.30
2018-09-04T10:43:57.804Z,100842.23
2018-09-04T10:46:26.460Z,100844.56
2018-09-04T10:48:54.670Z,100842.27
2018-09-04T10:51:22.660Z,100842.34
2018-09-04T10:53:50.769Z,100838.98
2018-09-04T10:56:18.790Z,100837.97
2018-09-04T10:58:46.781Z,100830.02
2018-09-04T11:01:14.768Z,100825.02
2018-09-04T11:03:42.959Z,100827.75
2018-09-04T11:06:10.976Z,100829.52
2018-09-04T11:08:38.992Z,100825.38
2018-09-04T11:11:07.010Z,100825.41
2018-09-04T11:13:35.005Z,100818.74
2018-09-04T11:16:03.025Z,100814.89
2018-09-04T11:18:31.028Z,100815.55
2018-09-04T11:20:59.056Z,100814.11
2018-09-04T11:23:27.098Z,100817.45
2018-09-04T11:25:55.097Z,100808.22
2018-09-04T11:28:23.103Z,100807.50
2018-09-04T11:30:51.128Z,100813.61
2018-09-04T11:33:19.141Z,100807.46
2018-09-04T11:35:47.148Z,100804.26
2018-09-04T11:38:15.151Z,100810.22
2018-09-04T11:40:43.210Z,100814.89
2018-09-04T11:43:11.200Z,100813.83
2018-09-04T11:45:39.228Z,100806.52
2018-09-04T11:48:07.267Z,100804.03
2018-09-04T11:50:35.281Z,100803.83
2018-09-04T11:53:03.288Z,100800.72
2018-09-04T11:55:31.350Z,100805.00
2018-09-04T11:57:59.368Z,100801.97
2018-09-04T12:00:34.173Z,100801.95
2018-09-04T12:03:02.382Z,100801.32
2018-09-04T12:05:30.659Z,100807.22
2018-09-04T12:07:58.736Z,100806.36
2018-09-04T12:10:26.765Z,100810.47
2018-09-04T12:12:54.979Z,100807.44
2018-09-04T12:15:23.021Z,100804.81
2018-09-04T12:17:51.013Z,100804.35
2018-09-04T12:20:28.833Z,100811.34
2018-09-04T12:22:56.924Z,100807.58
2018-09-04T12:25:25.646Z,100798.88
2018-09-04T12:27:53.730Z,100801.35
2018-09-04T12:30:21.768Z,100807.94
2018-09-04T12:32:49.813Z,100806.81
2018-09-04T12:35:17.841Z,100808.59
2018-09-04T12:37:45.924Z,100811.27
2018-09-04T12:40:13.952Z,100812.43
2018-09-04T12:42:41.990Z,100812.33
2018-09-04T12:45:10.060Z,100804.14
2018-09-04T12:47:38.072Z,100797.27
2018-09-04T12:50:06.174Z,100801.67
2018-09-04T12:52:34.231Z,100797.58
2018-09-04T12:55:02.227Z,100798.58
2018-09-04T12:57:30.297Z,100801.00
2018-09-04T12:59:58.302Z,100804.47
2018-09-04T13:02:26.336Z,100796.94
2018-09-04T13:04:54.404Z,100798.00
2018-09-04T13:07:22.482Z,100791.65
2018-09-04T13:09:50.492Z,100789.11
2018-09-04T13:12:18.509Z,100794.41
2018-09-04T13:14:46.531Z,100796.16
2018-09-04T13:17:14.619Z,100795.66
2018-09-04T13:19:42.640Z,100796.62
2018-09-04T13:22:10.682Z,100799.71
2018-09-04T13:24:38.691Z,100800.84
2018-09-04T13:27:06.812Z,100803.05
2018-09-04T13:29:34.886Z,100794.13
2018-09-04T13:32:02.929Z,100800.73
2018-09-04T13:34:31.094Z,100794.75
2018-09-04T13:36:59.062Z,100794.36
2018-09-04T13:39:27.064Z,100792.94
2018-09-04T13:41:55.201Z,100793.13
2018-09-04T13:44:23.230Z,100795.50
2018-09-04T13:46:51.223Z,100790.98
2018-09-04T13:49:19.279Z,100797.00
2018-09-04T13:51:47.278Z,100789.12
2018-09-04T13:54:15.316Z,100795.77
2018-09-04T13:56:43.408Z,100798.30
2018-09-04T13:59:11.466Z,100797.22
2018-09-04T14:01:39.449Z,100798.96
2018-09-04T14:04:07.514Z,100794.80
2018-09-04T14:06:36.010Z,100800.66
2018-09-04T14:09:05.424Z,100796.87
2018-09-04T14:11:33.453Z,100798.17
2018-09-04T14:14:01.755Z,100797.70
2018-09-04T14:16:29.686Z,100797.15
2018-09-04T14:18:57.701Z,100792.91
2018-09-04T14:21:25.722Z,100786.84
2018-09-04T14:23:54.113Z,100793.69
2018-09-04T14:26:22.220Z,100796.41
2018-09-04T14:29:06.422Z,100789.75
2018-09-04T14:31:18.429Z,100794.45
2018-09-04T14:33:53.282Z,100793.89
2018-09-04T14:36:21.553Z,100792.73
2018-09-04T14:38:49.524Z,100785.52
2018-09-04T14:41:17.533Z,100788.20
2018-09-04T14:43:45.556Z,100788.09
2018-09-04T14:46:13.604Z,100792.77
2018-09-04T14:48:41.645Z,100791.59
2018-09-04T14:51:09.685Z,100788.08
2018-09-04T14:53:37.687Z,100795.27
2018-09-04T14:56:05.743Z,100787.75
2018-09-04T14:58:33.787Z,100794.54
2018-09-04T15:01:01.834Z,100796.08
2018-09-04T15:03:29.887Z,100788.69
2018-09-04T15:05:57.926Z,100796.44
2018-09-04T15:08:25.941Z,100797.52
2018-09-04T15:10:54.028Z,100795.27
2018-09-04T15:13:22.173Z,100793.25
2018-09-04T15:15:50.281Z,100790.64
2018-09-04T15:18:19.128Z,100787.99
2018-09-04T15:20:47.300Z,100783.23
2018-09-04T15:23:15.456Z,100783.13
2018-09-04T15:25:43.496Z,100791.28
2018-09-04T15:28:11.466Z,100791.41
2018-09-04T15:30:39.453Z,100791.22
2018-09-04T15:33:07.460Z,100791.63
2018-09-04T15:35:35.485Z,100785.70
2018-09-04T15:38:03.504Z,100779.18
2018-09-04T15:40:31.521Z,100782.44
2018-09-04T15:42:59.545Z,100784.12
2018-09-04T15:45:27.580Z,100794.66
2018-09-04T15:47:55.673Z,100789.02
2018-09-04T15:50:23.837Z,100788.84
2018-09-04T15:52:51.936Z,100789.67
2018-09-04T15:55:19.960Z,100785.48
2018-09-04T15:57:47.960Z,100787.13
2018-09-04T16:00:16.039Z,100791.01
2018-09-04T16:02:44.093Z,100784.64
2018-09-04T16:05:12.165Z,100789.95
2018-09-04T16:07:40.209Z,100787.95
2018-09-04T16:10:08.416Z,100792.03
2018-09-04T16:12:36.497Z,100790.45
2018-09-04T16:15:04.671Z,100795.28
2018-09-04T16:17:32.837Z,100800.80
2018-09-04T16:20:01.218Z,100804.77
2018-09-04T16:22:29.504Z,100799.42
2018-09-04T16:24:57.740Z,100794.42
2018-09-04T16:27:25.797Z,100793.59
2018-09-04T16:29:53.880Z,100799.09
2018-09-04T16:32:21.925Z,100798.38
2018-09-04T16:34:50.033Z,100801.77
2018-09-04T16:37:18.010Z,100796.12
2018-09-04T16:39:46.058Z,100794.69
2018-09-04T16:42:14.085Z,100798.91
2018-09-04T16:44:42.073Z,100800.10
2018-09-04T16:47:10.094Z,100797.97
2018-09-04T16:49:38.092Z,100798.72
2018-09-04T16:52:06.569Z,100795.09
2018-09-04T16:54:34.584Z,100794.36
2018-09-04T16:57:02.589Z,100795.53
2018-09-04T16:59:30.784Z,100789.30
2018-09-04T17:01:58.792Z,100804.60
2018-09-04T17:04:26.825Z,100799.31
2018-09-04T17:06:54.846Z,100802.98
2018-09-04T17:09:23.052Z,100798.06
2018-09-04T17:11:51.248Z,100799.63
2018-09-04T17:14:19.400Z,100804.11
2018-09-04T17:16:47.430Z,100801.28
2018-09-04T17:19:15.492Z,100806.37
2018-09-04T17:21:43.541Z,100811.14
2018-09-04T17:24:11.648Z,100805.08
2018-09-04T17:26:39.696Z,100811.14
2018-09-04T17:29:07.924Z,100806.95
2018-09-04T17:31:36.017Z,100805.78
2018-09-04T17:34:04.039Z,100814.27
2018-09-04T17:36:32.159Z,100816.87
2018-09-04T17:39:00.161Z,100816.45
2018-09-04T17:41:28.600Z,100816.23
2018-09-04T17:43:56.673Z,100817.53
2018-09-04T17:46:24.717Z,100818.62
2018-09-04T17:48:52.786Z,100825.56
2018-09-04T17:51:20.810Z,100826.63
2018-09-04T17:53:48.816Z,100825.34
2018-09-04T17:56:16.873Z,100828.54
2018-09-04T17:58:44.904Z,100834.48
2018-09-04T18:01:12.952Z,100832.50
2018-09-04T18:03:41.014Z,100832.50
2018-09-04T18:06:09.070Z,100835.09
2018-09-04T18:08:37.080Z,100841.83
2018-09-04T18:11:05.229Z,100839.56
2018-09-04T18:13:33.320Z,100837.67
2018-09-04T18:16:01.330Z,100844.92
2018-09-04T18:18:29.450Z,100848.47
2018-09-04T18:20:57.479Z,100845.38
2018-09-04T18:23:25.488Z,100847.27
2018-09-04T18:25:53.501Z,100846.95
2018-09-04T18:28:21.756Z,100843.42
2018-09-04T18:30:50.734Z,100847.84
2018-09-04T18:33:18.766Z,100845.58
2018-09-04T18:35:46.781Z,100846.73
2018-09-04T18:38:14.829Z,100852.14
2018-09-04T18:40:42.865Z,100855.72
2018-09-04T18:43:10.989Z,100866.81
2018-09-04T18:45:50.320Z,100864.50
2018-09-04T18:48:18.737Z,100871.68
2018-09-04T18:50:46.840Z,100876.84
2018-09-04T18:53:15.069Z,100880.05
2018-09-04T18:55:43.144Z,100882.66
2018-09-04T18:58:12.072Z,100877.10
2018-09-04T19:00:40.550Z,100881.11
2018-09-04T19:03:08.577Z,100888.22
2018-09-04T19:05:36.716Z,100888.70
2018-09-04T19:08:04.880Z,100893.19
2018-09-04T19:10:33.243Z,100899.41
2018-09-04T19:13:01.684Z,100901.17
2018-09-04T19:15:30.731Z,100897.31
2018-09-04T19:17:58.808Z,100899.55
2018-09-04T19:20:26.822Z,100902.36
2018-09-04T19:22:54.888Z,100903.53
2018-09-04T19:25:23.278Z,100909.02
2018-09-04T19:27:51.420Z,100907.48
2018-09-04T19:30:19.525Z,100907.64
2018-09-04T19:32:47.563Z,100910.00
2018-09-04T19:35:15.568Z,100904.69
2018-09-04T19:37:43.601Z,100909.66
2018-09-04T19:40:11.745Z,100918.53
2018-09-04T19:42:40.737Z,100914.75
2018-09-04T19:45:09.137Z,100913.05
2018-09-04T19:47:37.365Z,100914.30
2018-09-04T19:50:06.803Z,100917.83
2018-09-04T19:52:34.785Z,100913.58
2018-09-04T19:55:02.893Z,100917.17
2018-09-04T19:57:31.016Z,100915.60
2018-09-04T19:59:59.101Z,100917.88
2018-09-04T20:02:27.205Z,100918.20
2018-09-04T20:04:55.245Z,100918.10
2018-09-04T20:07:23.351Z,100919.73
2018-09-04T20:09:51.350Z,100921.06
2018-09-04T20:12:19.421Z,100918.37
2018-09-04T20:14:47.453Z,100919.86
2018-09-04T20:17:15.626Z,100918.33
2018-09-04T20:19:43.969Z,100919.11
2018-09-04T20:22:11.976Z,100920.25
2018-09-04T20:24:40.129Z,100923.97
2018-09-04T20:27:08.330Z,100917.95
2018-09-04T20:29:36.431Z,100927.72
2018-09-04T20:32:04.404Z,100926.00
2018-09-04T20:34:32.430Z,100929.31
2018-09-04T20:37:00.473Z,100926.08
2018-09-04T20:39:28.651Z,100932.78
2018-09-04T20:41:56.937Z,100927.94
2018-09-04T20:44:24.975Z,100926.58
2018-09-04T20:46:53.086Z,100930.15
2018-09-04T20:49:21.112Z,100937.77
2018-09-04T20:51:49.660Z,100936.30
2018-09-04T20:54:17.838Z,100932.64
2018-09-04T20:56:53.839Z,100934.93
2018-09-04T20:59:33.382Z,100937.34
2018-09-04T21:02:13.034Z,100935.45
2018-09-04T21:04:52.393Z,100945.97
2018-09-04T21:07:24.925Z,100947.97
2018-09-04T21:09:58.392Z,100949.31
2018-09-04T21:12:26.462Z,100945.42
2018-09-04T21:14:54.547Z,100946.43
2018-09-04T21:17:22.577Z,100947.52
2018-09-04T21:19:50.600Z,100949.09
2018-09-04T21:22:18.620Z,100951.10
2018-09-04T21:24:46.918Z,100953.91
2018-09-04T21:27:14.877Z,100951.80
2018-09-04T21:29:43.013Z,100957.59
2018-09-04T21:32:11.163Z,100949.19
2018-09-04T21:34:39.328Z,100952.81
2018-09-04T21:37:07.408Z,100959.95
2018-09-04T21:39:35.447Z,100963.61
2018-09-04T21:42:03.479Z,100960.52
2018-09-04T21:44:31.546Z,100960.68
2018-09-04T21:46:59.553Z,100965.38
2018-09-04T21:49:27.573Z,100962.27
2018-09-04T21:51:55.622Z,100965.44
2018-09-04T21:54:23.630Z,100963.02
2018-09-04T21:56:51.948Z,100965.83
2018-09-04T21:59:19.913Z,100964.91
2018-09-04T22:01:47.981Z,100963.86
2018-09-04T22:04:16.057Z,100962.11
2018-09-04T22:06:44.120Z,100965.92
2018-09-04T22:09:12.250Z,100963.03
2018-09-04T22:11:40.268Z,100963.83
2018-09-04T22:14:08.331Z,100968.68
2018-09-04T22:16:36.349Z,100974.75
2018-09-04T22:19:04.684Z,100977.45
2018-09-04T22:21:32.697Z,100978.28
2018-09-04T22:24:00.804Z,100978.89
2018-09-04T22:26:28.847Z,100974.84
2018-09-04T22:28:56.844Z,100973.84
2018-09-04T22:31:24.868Z,100978.48
2018-09-04T22:33:52.900Z,100979.19
2018-09-04T22:36:20.973Z,100979.81
2018-09-04T22:38:49.050Z,100978.35
2018-09-04T22:41:17.102Z,100985.64
2018-09-04T22:43:45.143Z,100987.55
2018-09-04T22:46:13.204Z,100993.43
2018-09-04T22:48:41.230Z,100995.67
2018-09-04T22:51:14.721Z,100989.61
2018-09-04T22:53:42.723Z,100995.33
2018-09-04T22:56:10.753Z,100992.18
2018-09-04T22:58:38.776Z,100996.63
2018-09-04T23:01:06.813Z,100997.91
2018-09-04T23:03:34.845Z,100996.41
2018-09-04T23:06:02.835Z,100998.37
2018-09-04T23:08:30.902Z,100998.42
2018-09-04T23:10:59.054Z,101001.22
2018-09-04T23:13:27.066Z,101004.34
2018-09-04T23:15:55.054Z,101002.30
2018-09-04T23:18:23.081Z,101008.02
2018-09-04T23:20:51.135Z,101005.19
2018-09-04T23:23:19.128Z,101003.92
2018-09-04T23:25:47.149Z,101013.17
2018-09-04T23:28:15.164Z,101006.98
2018-09-04T23:30:43.398Z,101007.52
2018-09-04T23:33:11.422Z,101007.08
2018-09-04T23:35:39.451Z,101002.42
2018-09-04T23:38:07.456Z,101004.72
2018-09-04T23:40:36.283Z,101013.11
2018-09-04T23:43:04.502Z,101013.37
2018-09-04T23:45:32.513Z,101009.02
2018-09-04T23:48:00.548Z,101010.13
2018-09-04T23:50:29.289Z,101009.80
2018-09-04T23:52:57.313Z,101010.20
2018-09-04T23:55:25.307Z,101011.42
2018-09-04T23:57:53.424Z,101008.34
